Time;durP1;ratioP1;P1;durP2;ratioP2;P2;SDS_P1;SDS_P2;PMS_P1;PMS_P2;Temp;Humidity;BMP_temperature;BMP_pressure;BME280_temperature;BME280_humidity;BME280_pressure;Samples;Min_cycle;Max_cycle;Signal;HPM_P1;HPM_P2
2023/07/18 00:00:41;;;;;;;13.25;5.03;;;;;;;;;;5090606;27;20047;-79
2023/07/18 00:03:07;;;;;;;19.02;5.15;;;;;;;;;;5090335;27;22587;-78
2023/07/18 00:05:37;;;;;;;22.27;6.00;;;;;;;;;;5074815;27;20042;-78
2023/07/18 00:08:04;;;;;;;16.27;5.55;;;;;;;;;;5105612;27;20058;-78
2023/07/18 00:10:30;;;;;;;19.42;5.38;;;;;;;;;;5107612;27;20118;-78
2023/07/18 00:12:56;;;;;;;17.98;4.82;;;;;;;;;;5088148;27;20043;-78
2023/07/18 00:15:22;;;;;;;14.88;4.53;;;;;;;;;;5089315;27;20045;-78
2023/07/18 00:17:48;;;;;;;16.33;4.72;;;;;;;;;;5087865;27;20077;-78
2023/07/18 00:20:17;;;;;;;18.77;5.18;;;;;;;;;;5088006;27;20043;-78
2023/07/18 00:22:43;;;;;;;16.67;4.93;;;;;;;;;;5088851;27;20286;-78
2023/07/18 00:25:10;;;;;;;13.88;4.72;;;;;;;;;;5086349;27;20955;-78
2023/07/18 00:27:56;;;;;;;11.63;4.65;;;;;;;;;;5103759;27;21014;-78
2023/07/18 00:30:23;;;;;;;11.43;4.80;;;;;;;;;;5079481;27;22068;-78
2023/07/18 00:32:49;;;;;;;12.60;4.90;;;;;;;;;;5084170;27;20048;-78
2023/07/18 00:35:16;;;;;;;17.00;5.28;;;;;;;;;;5086065;27;20043;-78
2023/07/18 00:37:43;;;;;;;19.27;5.40;;;;;;;;;;5082181;27;22011;-78
2023/07/18 00:40:10;;;;;;;13.00;5.22;;;;;;;;;;5104054;27;20035;-78
2023/07/18 00:42:40;;;;;;;12.52;5.00;;;;;;;;;;5102389;27;20043;-79
2023/07/18 00:45:07;;;;;;;16.45;5.00;;;;;;;;;;5087668;27;20046;-79
2023/07/18 00:47:37;;;;;;;16.58;5.20;;;;;;;;;;5070645;27;20043;-78
2023/07/18 00:50:04;;;;;;;12.23;5.45;;;;;;;;;;5080170;27;20054;-78
2023/07/18 00:52:30;;;;;;;14.68;5.00;;;;;;;;;;5082794;27;20055;-78
2023/07/18 00:54:57;;;;;;;18.63;5.95;;;;;;;;;;5068386;27;20526;-78
2023/07/18 00:57:23;;;;;;;15.55;5.75;;;;;;;;;;5069126;27;20039;-78
2023/07/18 00:59:50;;;;;;;11.00;5.85;;;;;;;;;;5103699;27;20093;-79
2023/07/18 01:02:16;;;;;;;21.77;5.30;;;;;;;;;;5101255;27;20035;-78
2023/07/18 01:04:42;;;;;;;12.23;5.68;;;;;;;;;;5084472;27;20063;-78
2023/07/18 01:07:08;;;;;;;13.45;5.25;;;;;;;;;;5101457;27;20074;-78
2023/07/18 01:09:34;;;;;;;16.98;6.05;;;;;;;;;;5103980;27;20043;-78
2023/07/18 01:12:00;;;;;;;16.27;5.70;;;;;;;;;;5071491;27;20044;-78
2023/07/18 01:14:26;;;;;;;20.90;5.88;;;;;;;;;;5101992;27;20411;-77
2023/07/18 01:16:53;;;;;;;14.63;5.70;;;;;;;;;;5082617;27;20125;-78
2023/07/18 01:19:19;;;;;;;13.02;5.10;;;;;;;;;;5085311;27;20947;-78
2023/07/18 01:21:45;;;;;;;15.73;5.50;;;;;;;;;;5067193;27;20054;-78
2023/07/18 01:24:11;;;;;;;14.93;6.03;;;;;;;;;;5095773;27;20044;-78
2023/07/18 01:26:37;;;;;;;16.92;6.15;;;;;;;;;;5070561;28;20039;-78
2023/07/18 01:29:04;;;;;;;22.60;5.82;;;;;;;;;;5085090;28;20031;-78
2023/07/18 01:31:30;;;;;;;18.00;5.50;;;;;;;;;;5085591;28;21107;-78
2023/07/18 01:33:57;;;;;;;18.60;5.53;;;;;;;;;;5082682;27;20096;-79
2023/07/18 01:36:26;;;;;;;15.65;6.38;;;;;;;;;;5081910;27;20527;-78
2023/07/18 01:38:52;;;;;;;18.95;6.10;;;;;;;;;;5106247;27;20047;-78
2023/07/18 01:41:18;;;;;;;24.23;6.07;;;;;;;;;;5072593;27;20050;-79
2023/07/18 01:43:44;;;;;;;22.02;5.75;;;;;;;;;;5088766;27;20055;-79
2023/07/18 01:46:10;;;;;;;15.27;5.32;;;;;;;;;;5088898;27;20142;-78
2023/07/18 01:48:37;;;;;;;15.90;6.18;;;;;;;;;;5107555;27;20056;-78
2023/07/18 01:51:03;;;;;;;13.27;5.50;;;;;;;;;;5089589;27;20093;-78
2023/07/18 01:53:29;;;;;;;13.13;5.25;;;;;;;;;;5084581;27;20125;-78
2023/07/18 01:55:59;;;;;;;19.83;5.63;;;;;;;;;;5105392;27;20058;-79
2023/07/18 01:58:25;;;;;;;19.38;5.88;;;;;;;;;;5105976;27;20043;-79
2023/07/18 02:00:51;;;;;;;11.07;5.35;;;;;;;;;;5090725;27;20051;-78
2023/07/18 02:03:17;;;;;;;13.07;5.50;;;;;;;;;;5090861;27;20039;-78
2023/07/18 02:05:43;;;;;;;24.17;6.72;;;;;;;;;;5088409;27;20187;-78
2023/07/18 02:08:09;;;;;;;17.95;6.05;;;;;;;;;;5089353;27;20111;-78
2023/07/18 02:10:35;;;;;;;14.02;5.57;;;;;;;;;;5103809;27;20424;-77
2023/07/18 02:13:03;;;;;;;16.52;5.38;;;;;;;;;;5107799;27;20041;-77
2023/07/18 02:15:29;;;;;;;14.30;5.47;;;;;;;;;;5087782;27;20046;-78
2023/07/18 02:17:55;;;;;;;13.57;5.13;;;;;;;;;;5091831;27;20224;-78
2023/07/18 02:20:21;;;;;;;13.20;5.30;;;;;;;;;;5109615;27;20067;-78
2023/07/18 02:22:48;;;;;;;15.32;6.18;;;;;;;;;;5089963;27;20066;-77
2023/07/18 02:25:17;;;;;;;23.95;6.28;;;;;;;;;;5087730;27;20043;-78
2023/07/18 02:27:44;;;;;;;15.30;5.20;;;;;;;;;;5087229;27;20047;-78
2023/07/18 02:30:13;;;;;;;19.08;6.38;;;;;;;;;;5107115;27;20047;-78
2023/07/18 02:32:40;;;;;;;18.73;6.25;;;;;;;;;;5089070;27;20039;-78
2023/07/18 02:35:10;;;;;;;24.90;5.63;;;;;;;;;;5072544;27;20039;-78
2023/07/18 02:37:36;;;;;;;16.70;5.68;;;;;;;;;;5087393;27;20054;-77
2023/07/18 02:40:11;;;;;;;14.85;5.57;;;;;;;;;;5088040;27;20047;-78
2023/07/18 02:42:38;;;;;;;18.35;6.57;;;;;;;;;;5082522;27;20074;-78
2023/07/18 02:45:06;;;;;;;17.83;6.32;;;;;;;;;;5086777;27;20118;-78
2023/07/18 02:47:32;;;;;;;12.02;5.88;;;;;;;;;;5084206;27;20054;-77
2023/07/18 02:49:58;;;;;;;24.88;6.43;;;;;;;;;;5088798;27;20088;-77
2023/07/18 02:52:24;;;;;;;15.13;6.40;;;;;;;;;;5081685;27;20157;-78
2023/07/18 02:54:50;;;;;;;15.55;5.75;;;;;;;;;;5087162;27;20053;-78
2023/07/18 02:57:17;;;;;;;23.73;6.55;;;;;;;;;;5083382;27;20413;-78
2023/07/18 02:59:43;;;;;;;15.93;6.32;;;;;;;;;;5087095;27;20035;-78
2023/07/18 03:02:10;;;;;;;16.20;5.97;;;;;;;;;;5082305;27;20055;-78
2023/07/18 03:04:36;;;;;;;17.80;6.53;;;;;;;;;;5081576;27;20039;-79
2023/07/18 03:07:02;;;;;;;17.98;6.32;;;;;;;;;;5082454;27;20146;-78
2023/07/18 03:09:32;;;;;;;19.27;7.30;;;;;;;;;;5101760;27;20046;-79
2023/07/18 03:11:59;;;;;;;22.60;6.40;;;;;;;;;;5082731;27;20067;-79
2023/07/18 03:14:25;;;;;;;25.10;6.53;;;;;;;;;;5087157;27;20050;-78
2023/07/18 03:16:51;;;;;;;21.95;7.03;;;;;;;;;;5065925;27;21970;-78
2023/07/18 03:19:17;;;;;;;22.17;7.47;;;;;;;;;;5083552;27;20043;-78
2023/07/18 03:21:46;;;;;;;19.15;7.57;;;;;;;;;;5102291;27;20039;-78
2023/07/18 03:24:12;;;;;;;20.23;7.32;;;;;;;;;;5083537;27;20570;-78
2023/07/18 03:26:38;;;;;;;20.83;6.57;;;;;;;;;;5083983;27;20035;-78
2023/07/18 03:29:05;;;;;;;21.77;5.93;;;;;;;;;;5083488;27;20131;-78
2023/07/18 03:31:32;;;;;;;19.98;6.35;;;;;;;;;;5083926;27;20140;-78
2023/07/18 03:33:58;;;;;;;17.20;6.32;;;;;;;;;;5083131;27;20127;-79
2023/07/18 03:36:24;;;;;;;18.20;6.88;;;;;;;;;;5085229;27;20047;-78
2023/07/18 03:38:51;;;;;;;20.27;7.10;;;;;;;;;;5084621;27;20066;-78
2023/07/18 03:41:17;;;;;;;14.50;6.57;;;;;;;;;;5083943;27;20127;-78
2023/07/18 03:43:43;;;;;;;20.95;6.82;;;;;;;;;;5102728;27;20046;-78
2023/07/18 03:46:09;;;;;;;20.33;6.60;;;;;;;;;;5083043;27;20107;-78
2023/07/18 03:48:37;;;;;;;21.70;6.60;;;;;;;;;;5097848;27;20406;-78
2023/07/18 03:51:06;;;;;;;16.42;6.40;;;;;;;;;;5084083;27;20560;-78
2023/07/18 03:53:33;;;;;;;17.02;6.32;;;;;;;;;;5085288;27;20063;-78
2023/07/18 03:56:06;;;;;;;15.38;6.72;;;;;;;;;;5083749;27;21153;-78
2023/07/18 03:58:32;;;;;;;19.17;6.20;;;;;;;;;;5081972;27;20047;-78
2023/07/18 04:00:59;;;;;;;23.05;6.63;;;;;;;;;;5082976;27;20044;-78
2023/07/18 04:03:25;;;;;;;19.23;6.75;;;;;;;;;;5084731;27;20043;-78
2023/07/18 04:05:51;;;;;;;15.57;5.95;;;;;;;;;;5084512;27;20043;-78
2023/07/18 04:08:18;;;;;;;24.52;6.72;;;;;;;;;;5084134;27;20062;-78
2023/07/18 04:10:44;;;;;;;18.48;6.78;;;;;;;;;;5104471;27;20070;-78
2023/07/18 04:13:11;;;;;;;23.98;7.00;;;;;;;;;;5102045;27;20070;-78
2023/07/18 04:15:37;;;;;;;19.52;6.30;;;;;;;;;;5087581;27;20450;-78
2023/07/18 04:18:03;;;;;;;26.30;7.15;;;;;;;;;;5071447;27;20074;-78
2023/07/18 04:20:29;;;;;;;27.67;7.63;;;;;;;;;;5069914;27;20039;-78
2023/07/18 04:22:55;;;;;;;22.10;6.80;;;;;;;;;;5086575;27;20140;-78
2023/07/18 04:25:21;;;;;;;18.48;6.88;;;;;;;;;;5074453;27;20104;-78
2023/07/18 04:27:47;;;;;;;24.73;7.57;;;;;;;;;;5109012;27;20043;-78
2023/07/18 04:30:13;;;;;;;25.52;7.55;;;;;;;;;;5066045;27;20166;-78
2023/07/18 04:32:43;;;;;;;22.77;7.38;;;;;;;;;;5104879;27;20057;-78
2023/07/18 04:35:09;;;;;;;30.27;7.88;;;;;;;;;;5084617;27;20046;-78
2023/07/18 04:37:36;;;;;;;21.98;7.63;;;;;;;;;;5066591;27;20051;-78
2023/07/18 04:40:05;;;;;;;21.10;6.63;;;;;;;;;;5084197;27;22297;-78
2023/07/18 04:42:32;;;;;;;20.67;6.65;;;;;;;;;;5081219;27;20092;-78
2023/07/18 04:44:58;;;;;;;26.30;7.10;;;;;;;;;;5084069;27;20044;-79
2023/07/18 04:47:24;;;;;;;21.67;7.95;;;;;;;;;;5104531;27;20071;-79
2023/07/18 04:49:51;;;;;;;26.58;8.20;;;;;;;;;;5101671;27;20055;-79
2023/07/18 04:52:18;;;;;;;17.60;7.28;;;;;;;;;;5103080;27;20402;-79
2023/07/18 04:54:44;;;;;;;27.02;8.20;;;;;;;;;;5102321;27;21984;-79
2023/07/18 04:57:10;;;;;;;21.90;7.68;;;;;;;;;;5098679;27;20042;-80
2023/07/18 04:59:36;;;;;;;22.30;7.72;;;;;;;;;;5081891;27;20083;-80
2023/07/18 05:02:02;;;;;;;19.05;7.35;;;;;;;;;;5085558;27;20136;-79
2023/07/18 05:04:29;;;;;;;22.33;6.88;;;;;;;;;;5100487;27;20043;-80
2023/07/18 05:06:55;;;;;;;18.38;7.28;;;;;;;;;;5102689;27;20070;-80
2023/07/18 05:09:21;;;;;;;19.63;7.43;;;;;;;;;;5084301;27;20039;-80
2023/07/18 05:11:47;;;;;;;18.83;6.10;;;;;;;;;;5085699;28;20071;-80
2023/07/18 05:14:13;;;;;;;27.48;7.45;;;;;;;;;;5084450;28;20031;-79
2023/07/18 05:16:39;;;;;;;21.38;6.45;;;;;;;;;;5073370;27;20050;-79
2023/07/18 05:19:05;;;;;;;29.45;7.03;;;;;;;;;;5069845;27;20047;-80
2023/07/18 05:21:32;;;;;;;14.75;6.57;;;;;;;;;;5102233;27;20612;-80
2023/07/18 05:23:58;;;;;;;25.58;6.85;;;;;;;;;;5070692;27;20050;-79
2023/07/18 05:26:24;;;;;;;20.63;6.93;;;;;;;;;;5106045;27;20051;-80
2023/07/18 05:28:51;;;;;;;25.42;7.47;;;;;;;;;;5087469;28;20047;-79
2023/07/18 05:31:17;;;;;;;23.10;8.70;;;;;;;;;;5105258;27;20050;-80
2023/07/18 05:33:43;;;;;;;21.15;7.47;;;;;;;;;;5104890;27;20089;-79
2023/07/18 05:36:09;;;;;;;18.77;6.70;;;;;;;;;;5084282;27;20039;-79
2023/07/18 05:38:35;;;;;;;21.55;7.07;;;;;;;;;;5086917;28;20075;-79
2023/07/18 05:41:01;;;;;;;19.50;7.10;;;;;;;;;;5086982;27;20039;-79
2023/07/18 05:43:27;;;;;;;20.15;6.65;;;;;;;;;;5103038;27;20075;-79
2023/07/18 05:45:53;;;;;;;20.00;6.70;;;;;;;;;;5105812;28;20035;-79
2023/07/18 05:48:19;;;;;;;18.17;6.85;;;;;;;;;;5085794;28;20039;-79
2023/07/18 05:50:46;;;;;;;21.05;7.85;;;;;;;;;;5102972;27;20047;-78
2023/07/18 05:53:12;;;;;;;21.17;7.75;;;;;;;;;;5083894;28;20059;-79
2023/07/18 05:55:38;;;;;;;18.48;7.90;;;;;;;;;;5084390;28;20058;-79
2023/07/18 05:58:04;;;;;;;29.80;7.63;;;;;;;;;;5086201;28;20498;-79
2023/07/18 06:00:30;;;;;;;27.98;7.05;;;;;;;;;;5105901;27;20099;-79
2023/07/18 06:02:56;;;;;;;28.67;7.45;;;;;;;;;;5087794;28;20039;-79
2023/07/18 06:05:22;;;;;;;22.40;7.80;;;;;;;;;;5088964;28;20096;-80
2023/07/18 06:07:48;;;;;;;20.75;6.80;;;;;;;;;;5089475;28;20414;-79
2023/07/18 06:10:14;;;;;;;23.23;6.95;;;;;;;;;;5103778;27;20043;-79
2023/07/18 06:12:40;;;;;;;20.38;7.32;;;;;;;;;;5070616;28;20051;-79
2023/07/18 06:15:07;;;;;;;17.48;7.35;;;;;;;;;;5082120;27;20071;-79
2023/07/18 06:17:35;;;;;;;19.85;7.55;;;;;;;;;;5085023;28;20050;-79
2023/07/18 06:20:08;;;;;;;24.33;6.88;;;;;;;;;;5086416;27;20047;-79
2023/07/18 06:22:34;;;;;;;24.58;6.75;;;;;;;;;;5088214;27;20092;-79
2023/07/18 06:25:00;;;;;;;18.70;6.80;;;;;;;;;;5090907;27;20922;-79
2023/07/18 06:27:27;;;;;;;20.42;7.03;;;;;;;;;;5085386;27;20119;-79
2023/07/18 06:29:54;;;;;;;21.70;7.47;;;;;;;;;;5067573;27;20109;-78
2023/07/18 06:32:22;;;;;;;21.67;6.78;;;;;;;;;;5090617;27;20054;-79
2023/07/18 06:34:48;;;;;;;20.65;7.38;;;;;;;;;;5106568;27;20577;-79
2023/07/18 06:37:14;;;;;;;19.95;6.78;;;;;;;;;;5091456;27;20043;-79
2023/07/18 06:39:40;;;;;;;23.55;6.80;;;;;;;;;;5088440;27;20039;-79
2023/07/18 06:42:08;;;;;;;22.15;7.30;;;;;;;;;;5071550;27;20027;-78
2023/07/18 06:44:34;;;;;;;18.67;6.68;;;;;;;;;;5110804;27;20126;-79
2023/07/18 06:47:01;;;;;;;17.63;7.18;;;;;;;;;;5109775;27;20663;-79
2023/07/18 06:49:27;;;;;;;21.73;8.23;;;;;;;;;;5091211;27;20050;-78
2023/07/18 06:51:53;;;;;;;18.77;6.80;;;;;;;;;;5070182;27;20077;-79
2023/07/18 06:54:19;;;;;;;26.00;8.32;;;;;;;;;;5106820;27;20042;-79
2023/07/18 06:56:45;;;;;;;24.00;7.68;;;;;;;;;;5085050;27;20679;-78
2023/07/18 06:59:13;;;;;;;21.05;7.40;;;;;;;;;;5089586;27;20122;-78
2023/07/18 07:01:39;;;;;;;27.02;8.23;;;;;;;;;;5110108;27;20047;-78
2023/07/18 07:04:06;;;;;;;19.95;7.10;;;;;;;;;;5094118;27;20064;-78
2023/07/18 07:06:32;;;;;;;24.50;7.65;;;;;;;;;;5092618;27;20039;-78
2023/07/18 07:08:58;;;;;;;25.70;7.30;;;;;;;;;;5093707;27;20047;-78
2023/07/18 07:11:27;;;;;;;21.23;8.48;;;;;;;;;;5076158;27;20058;-79
2023/07/18 07:13:53;;;;;;;22.58;7.65;;;;;;;;;;5088507;27;20050;-79
2023/07/18 07:16:19;;;;;;;26.85;7.78;;;;;;;;;;5109763;27;20054;-79
2023/07/18 07:18:49;;;;;;;27.83;7.75;;;;;;;;;;5076293;27;20043;-78
2023/07/18 07:21:15;;;;;;;21.60;8.45;;;;;;;;;;5085429;27;20092;-78
2023/07/18 07:23:41;;;;;;;22.50;8.23;;;;;;;;;;5089621;27;21390;-78
2023/07/18 07:26:08;;;;;;;26.25;7.82;;;;;;;;;;5093296;27;20676;-78
2023/07/18 07:28:35;;;;;;;20.42;8.02;;;;;;;;;;5088566;27;20077;-78
2023/07/18 07:31:05;;;;;;;23.40;7.07;;;;;;;;;;5088376;27;20047;-78
2023/07/18 07:33:31;;;;;;;26.33;8.57;;;;;;;;;;5088342;27;20193;-78
2023/07/18 07:35:57;;;;;;;29.55;8.90;;;;;;;;;;5085051;27;20962;-78
2023/07/18 07:38:23;;;;;;;21.80;7.43;;;;;;;;;;5070724;27;20043;-79
2023/07/18 07:40:50;;;;;;;24.73;7.55;;;;;;;;;;5085434;27;20088;-79
2023/07/18 07:43:16;;;;;;;19.23;7.88;;;;;;;;;;5088004;27;20043;-79
2023/07/18 07:45:42;;;;;;;24.13;7.32;;;;;;;;;;5088669;27;20122;-78
2023/07/18 07:48:08;;;;;;;21.60;7.47;;;;;;;;;;5085644;27;20047;-77
2023/07/18 07:50:34;;;;;;;23.80;7.07;;;;;;;;;;5091777;27;20039;-79
2023/07/18 07:53:00;;;;;;;23.90;7.57;;;;;;;;;;5091514;27;20055;-78
2023/07/18 07:55:27;;;;;;;20.77;6.60;;;;;;;;;;5069648;27;20057;-77
2023/07/18 07:57:54;;;;;;;19.75;6.78;;;;;;;;;;5107963;27;20120;-77
2023/07/18 08:00:21;;;;;;;18.20;5.88;;;;;;;;;;5073824;27;20587;-78
2023/07/18 08:02:47;;;;;;;18.23;6.15;;;;;;;;;;5072801;27;20050;-78
2023/07/18 08:05:13;;;;;;;14.00;5.18;;;;;;;;;;5089612;27;20066;-78
2023/07/18 08:07:41;;;;;;;20.02;6.25;;;;;;;;;;5092982;27;20051;-79
2023/07/18 08:10:07;;;;;;;14.75;4.13;;;;;;;;;;5109732;27;20054;-78
2023/07/18 08:12:34;;;;;;;19.70;5.53;;;;;;;;;;5088740;27;20852;-77
2023/07/18 08:15:00;;;;;;;15.80;4.10;;;;;;;;;;5077744;27;20047;-79
2023/07/18 08:17:26;;;;;;;13.27;3.30;;;;;;;;;;5103360;27;20069;-79
2023/07/18 08:19:52;;;;;;;12.48;3.50;;;;;;;;;;5107907;27;20078;-79
2023/07/18 08:22:18;;;;;;;17.20;4.15;;;;;;;;;;5106916;27;20051;-78
2023/07/18 08:24:44;;;;;;;11.50;3.55;;;;;;;;;;5086522;27;22707;-78
2023/07/18 08:27:10;;;;;;;16.15;3.40;;;;;;;;;;5089450;27;20051;-80
2023/07/18 08:29:36;;;;;;;16.33;4.80;;;;;;;;;;5088359;27;20047;-78
2023/07/18 08:32:03;;;;;;;11.75;3.47;;;;;;;;;;5076354;27;20053;-78
2023/07/18 08:34:29;;;;;;;10.95;3.13;;;;;;;;;;5096200;27;20055;-78
2023/07/18 08:36:55;;;;;;;9.40;3.47;;;;;;;;;;5107974;27;20051;-78
2023/07/18 08:39:21;;;;;;;13.68;3.30;;;;;;;;;;5091653;27;20043;-78
2023/07/18 08:41:49;;;;;;;8.55;3.08;;;;;;;;;;5085084;27;20478;-77
2023/07/18 08:44:16;;;;;;;15.07;3.38;;;;;;;;;;5092922;27;20043;-77
2023/07/18 08:46:45;;;;;;;9.93;3.20;;;;;;;;;;5109941;27;20040;-78
2023/07/18 08:49:15;;;;;;;9.65;2.72;;;;;;;;;;5074962;27;20101;-77
2023/07/18 08:51:42;;;;;;;13.23;3.35;;;;;;;;;;5091707;27;20425;-78
2023/07/18 08:54:08;;;;;;;7.78;2.85;;;;;;;;;;5086487;27;20032;-78
2023/07/18 08:56:34;;;;;;;10.50;2.70;;;;;;;;;;5090814;27;21993;-78
2023/07/18 08:59:00;;;;;;;9.60;2.70;;;;;;;;;;5091616;27;20043;-78
2023/07/18 09:01:26;;;;;;;10.18;3.28;;;;;;;;;;5110745;27;20081;-78
2023/07/18 09:03:52;;;;;;;9.98;2.95;;;;;;;;;;5093966;27;20046;-78
2023/07/18 09:06:20;;;;;;;13.15;3.05;;;;;;;;;;5109494;27;20070;-78
2023/07/18 09:08:46;;;;;;;10.70;3.13;;;;;;;;;;5109889;27;20084;-77
2023/07/18 09:11:14;;;;;;;10.02;3.13;;;;;;;;;;5092473;27;20051;-78
2023/07/18 09:13:41;;;;;;;9.98;2.35;;;;;;;;;;5091268;27;20602;-78
2023/07/18 09:16:17;;;;;;;10.95;3.08;;;;;;;;;;5095630;27;20173;-77
2023/07/18 09:18:57;;;;;;;10.23;2.67;;;;;;;;;;5115609;27;20399;-78
2023/07/18 09:21:23;;;;;;;9.05;2.45;;;;;;;;;;5115338;27;20043;-78
2023/07/18 09:23:50;;;;;;;12.07;3.63;;;;;;;;;;5094812;27;20345;-78
2023/07/18 09:26:20;;;;;;;10.30;2.58;;;;;;;;;;5107093;27;20039;-78
2023/07/18 09:28:47;;;;;;;10.55;2.78;;;;;;;;;;5091837;27;20720;-78
2023/07/18 09:31:21;;;;;;;9.20;2.75;;;;;;;;;;5089828;27;20051;-78
2023/07/18 09:33:47;;;;;;;5.97;1.55;;;;;;;;;;5094820;28;20051;-77
2023/07/18 09:36:33;;;;;;;7.68;2.40;;;;;;;;;;5088740;28;20051;-78
2023/07/18 09:38:59;;;;;;;10.32;2.67;;;;;;;;;;5106362;27;20043;-77
2023/07/18 09:41:26;;;;;;;10.63;2.53;;;;;;;;;;5094117;28;20436;-78
2023/07/18 09:43:53;;;;;;;10.73;2.88;;;;;;;;;;5094183;27;20043;-78
2023/07/18 09:46:19;;;;;;;9.63;2.25;;;;;;;;;;5100432;28;20455;-77
2023/07/18 09:48:46;;;;;;;6.72;2.25;;;;;;;;;;5111160;27;20092;-77
2023/07/18 09:51:16;;;;;;;7.60;2.20;;;;;;;;;;5109860;27;20490;-77
2023/07/18 09:53:46;;;;;;;9.27;2.95;;;;;;;;;;5112343;27;20047;-78
2023/07/18 09:56:14;;;;;;;8.23;2.67;;;;;;;;;;5079081;27;20129;-78
2023/07/18 09:58:42;;;;;;;8.98;2.45;;;;;;;;;;5104009;27;20061;-78
2023/07/18 10:01:11;;;;;;;8.13;2.22;;;;;;;;;;5093133;27;20057;-79
2023/07/18 10:03:38;;;;;;;6.43;1.90;;;;;;;;;;5093606;27;20399;-79
2023/07/18 10:06:06;;;;;;;5.45;2.00;;;;;;;;;;5105182;27;20685;-79
2023/07/18 10:08:32;;;;;;;7.88;1.85;;;;;;;;;;5086688;27;20068;-79
2023/07/18 10:11:03;;;;;;;9.07;2.47;;;;;;;;;;5091515;27;20043;-79
2023/07/18 10:13:30;;;;;;;11.82;2.90;;;;;;;;;;5090093;27;20070;-80
2023/07/18 10:16:14;;;;;;;10.75;2.15;;;;;;;;;;5092231;27;20043;-79
2023/07/18 10:18:56;;;;;;;5.78;2.45;;;;;;;;;;5098339;27;20071;-79
2023/07/18 10:21:32;;;;;;;5.60;1.80;;;;;;;;;;5075713;27;20035;-75
2023/07/18 10:24:23;;;;;;;5.32;1.30;;;;;;;;;;5114289;27;20039;-81
2023/07/18 10:26:52;;;;;;;6.65;2.05;;;;;;;;;;5092259;27;20035;-81
2023/07/18 10:29:18;;;;;;;7.10;1.63;;;;;;;;;;5110919;27;20043;-80
2023/07/18 10:31:45;;;;;;;7.38;1.88;;;;;;;;;;5115523;27;20073;-79
2023/07/18 10:34:14;;;;;;;5.78;1.65;;;;;;;;;;5115395;27;20031;-80
2023/07/18 10:36:40;;;;;;;5.78;1.83;;;;;;;;;;5095689;27;20733;-79
2023/07/18 10:39:08;;;;;;;5.07;1.88;;;;;;;;;;5102595;27;20058;-79
2023/07/18 10:41:35;;;;;;;4.15;1.27;;;;;;;;;;5118183;27;20039;-79
2023/07/18 10:44:01;;;;;;;6.88;3.10;;;;;;;;;;5101919;27;20043;-79
2023/07/18 10:46:38;;;;;;;4.90;1.65;;;;;;;;;;5090347;27;20069;-79
2023/07/18 10:49:04;;;;;;;9.10;2.22;;;;;;;;;;5119325;27;20047;-79
2023/07/18 10:51:31;;;;;;;6.63;2.17;;;;;;;;;;5081327;27;20043;-79
2023/07/18 10:53:58;;;;;;;5.90;1.80;;;;;;;;;;5107463;27;20766;-80
2023/07/18 10:56:24;;;;;;;8.32;2.28;;;;;;;;;;5105754;27;20059;-79
2023/07/18 10:58:54;;;;;;;9.48;2.20;;;;;;;;;;5110996;27;20923;-79
2023/07/18 11:01:20;;;;;;;7.65;1.92;;;;;;;;;;5070495;27;20080;-79
2023/07/18 11:03:47;;;;;;;5.75;1.92;;;;;;;;;;5108423;27;20039;-79
2023/07/18 11:06:16;;;;;;;7.70;2.90;;;;;;;;;;5086875;27;20402;-79
2023/07/18 11:08:45;;;;;;;6.85;2.50;;;;;;;;;;5086954;27;20551;-79
2023/07/18 11:11:14;;;;;;;7.25;2.40;;;;;;;;;;5106479;27;20050;-79
2023/07/18 11:13:43;;;;;;;8.75;3.22;;;;;;;;;;5108467;27;20585;-79
2023/07/18 11:16:11;;;;;;;9.02;2.30;;;;;;;;;;5108508;27;20126;-79
2023/07/18 11:18:39;;;;;;;9.85;3.28;;;;;;;;;;5107208;27;20190;-78
2023/07/18 11:21:05;;;;;;;5.32;2.13;;;;;;;;;;5105687;27;20043;-78
2023/07/18 11:23:32;;;;;;;12.77;2.30;;;;;;;;;;5102988;27;20490;-78
2023/07/18 11:25:58;;;;;;;10.32;2.40;;;;;;;;;;5103496;27;20035;-78
2023/07/18 11:28:34;;;;;;;7.32;2.30;;;;;;;;;;5070696;27;20804;-78
2023/07/18 11:31:00;;;;;;;7.28;2.45;;;;;;;;;;5086907;27;20098;-79
2023/07/18 11:33:32;;;;;;;7.15;1.88;;;;;;;;;;5106249;27;20407;-79
2023/07/18 11:35:59;;;;;;;6.25;2.13;;;;;;;;;;5106178;27;20049;-80
2023/07/18 11:38:28;;;;;;;8.98;2.70;;;;;;;;;;5105330;27;20077;-80
2023/07/18 11:40:54;;;;;;;5.20;1.80;;;;;;;;;;5105421;27;20035;-80
2023/07/18 11:43:21;;;;;;;4.78;1.88;;;;;;;;;;5088367;27;20039;-80
2023/07/18 11:45:47;;;;;;;5.15;2.10;;;;;;;;;;5104088;27;20027;-80
2023/07/18 11:48:14;;;;;;;4.03;1.80;;;;;;;;;;5085959;27;20051;-80
2023/07/18 11:50:43;;;;;;;7.72;1.75;;;;;;;;;;5105344;27;20051;-79
2023/07/18 11:53:09;;;;;;;4.95;1.55;;;;;;;;;;5104066;27;20061;-79
2023/07/18 11:55:35;;;;;;;4.40;2.03;;;;;;;;;;5082649;27;21975;-80
2023/07/18 11:58:07;;;;;;;8.27;2.17;;;;;;;;;;5087115;27;20052;-79
2023/07/18 12:00:35;;;;;;;4.75;1.80;;;;;;;;;;5102357;27;20047;-80
2023/07/18 12:03:07;;;;;;;5.43;2.08;;;;;;;;;;5110833;27;20070;-77
2023/07/18 12:05:35;;;;;;;3.58;1.90;;;;;;;;;;5068636;27;20043;-79
2023/07/18 12:08:02;;;;;;;4.22;1.75;;;;;;;;;;5089614;27;20455;-78
2023/07/18 12:10:38;;;;;;;5.03;2.15;;;;;;;;;;5114027;27;20040;-78
2023/07/18 12:13:04;;;;;;;3.83;1.83;;;;;;;;;;5090091;27;20085;-78
2023/07/18 12:15:30;;;;;;;6.35;1.30;;;;;;;;;;5105985;27;20085;-79
2023/07/18 12:17:57;;;;;;;3.92;1.73;;;;;;;;;;5087395;27;20040;-78
2023/07/18 12:20:23;;;;;;;2.85;1.20;;;;;;;;;;5088487;27;20070;-78
2023/07/18 12:22:49;;;;;;;1.95;1.25;;;;;;;;;;5085831;27;20039;-78
2023/07/18 12:25:16;;;;;;;3.45;1.20;;;;;;;;;;5090951;27;20055;-78
2023/07/18 12:27:43;;;;;;;3.05;1.50;;;;;;;;;;5090113;27;20058;-77
2023/07/18 12:30:12;;;;;;;3.22;1.35;;;;;;;;;;5108470;27;20118;-79
2023/07/18 12:32:38;;;;;;;4.72;1.80;;;;;;;;;;5108173;27;20107;-78
2023/07/18 12:35:04;;;;;;;3.97;1.60;;;;;;;;;;5106907;27;20065;-79
2023/07/18 12:37:30;;;;;;;5.30;1.95;;;;;;;;;;5089777;27;20053;-78
2023/07/18 12:39:56;;;;;;;10.50;1.83;;;;;;;;;;5105430;27;20724;-79
2023/07/18 12:42:22;;;;;;;5.15;2.22;;;;;;;;;;5106170;27;20047;-79
2023/07/18 12:44:50;;;;;;;8.10;2.05;;;;;;;;;;5089911;27;21856;-78
2023/07/18 12:47:16;;;;;;;3.42;2.05;;;;;;;;;;5088347;27;20126;-79
2023/07/18 12:49:42;;;;;;;5.05;2.40;;;;;;;;;;5089902;27;20044;-80
2023/07/18 12:52:08;;;;;;;4.35;2.10;;;;;;;;;;5089526;27;20526;-77
2023/07/18 12:54:34;;;;;;;6.25;2.00;;;;;;;;;;5090873;27;20039;-76
2023/07/18 12:57:00;;;;;;;5.47;1.90;;;;;;;;;;5105701;27;20051;-76
2023/07/18 12:59:30;;;;;;;11.82;2.28;;;;;;;;;;5073493;27;20091;-77
2023/07/18 13:01:56;;;;;;;2.90;2.08;;;;;;;;;;5090028;27;20088;-77
2023/07/18 13:04:23;;;;;;;5.85;2.28;;;;;;;;;;5089266;27;20107;-77
2023/07/18 13:06:49;;;;;;;4.82;2.35;;;;;;;;;;5107722;27;20139;-77
2023/07/18 13:09:15;;;;;;;5.93;2.47;;;;;;;;;;5087290;27;20065;-76
2023/07/18 13:11:41;;;;;;;5.47;2.60;;;;;;;;;;5105581;27;20043;-76
2023/07/18 13:14:08;;;;;;;7.85;2.10;;;;;;;;;;5106930;27;20046;-76
2023/07/18 13:16:34;;;;;;;4.93;2.47;;;;;;;;;;5105063;27;20487;-76
2023/07/18 13:19:01;;;;;;;3.92;1.95;;;;;;;;;;5084772;27;20047;-77
2023/07/18 13:21:27;;;;;;;4.13;1.80;;;;;;;;;;5107524;27;20039;-77
2023/07/18 13:23:53;;;;;;;5.25;2.05;;;;;;;;;;5087489;28;20047;-77
2023/07/18 13:26:20;;;;;;;6.90;1.90;;;;;;;;;;5087769;27;20031;-77
2023/07/18 13:28:46;;;;;;;3.42;1.83;;;;;;;;;;5087730;27;20061;-76
2023/07/18 13:31:12;;;;;;;2.85;1.80;;;;;;;;;;5106501;27;20092;-76
2023/07/18 13:33:38;;;;;;;6.10;1.80;;;;;;;;;;5107473;27;20040;-76
2023/07/18 13:36:05;;;;;;;4.20;1.70;;;;;;;;;;5088944;27;20035;-75
2023/07/18 13:38:31;;;;;;;2.67;1.13;;;;;;;;;;5104426;27;21929;-76
2023/07/18 13:40:59;;;;;;;5.28;1.67;;;;;;;;;;5088438;27;20073;-75
2023/07/18 13:43:25;;;;;;;3.40;1.30;;;;;;;;;;5106531;27;20723;-76
2023/07/18 13:45:51;;;;;;;6.97;1.42;;;;;;;;;;5107803;27;20043;-76
2023/07/18 13:48:17;;;;;;;2.95;1.20;;;;;;;;;;5088201;27;20074;-76
2023/07/18 13:50:43;;;;;;;4.85;1.10;;;;;;;;;;5056448;27;20045;-76
2023/07/18 13:53:09;;;;;;;6.00;1.48;;;;;;;;;;5107830;27;20055;-76
2023/07/18 13:55:35;;;;;;;3.20;1.10;;;;;;;;;;5088576;27;20349;-75
2023/07/18 13:58:01;;;;;;;3.20;1.42;;;;;;;;;;5087767;28;20047;-75
2023/07/18 14:00:29;;;;;;;1.98;1.02;;;;;;;;;;5106500;27;20126;-76
2023/07/18 14:02:55;;;;;;;3.28;1.20;;;;;;;;;;5074191;28;20069;-75
2023/07/18 14:05:21;;;;;;;2.58;1.00;;;;;;;;;;5088224;27;20035;-76
2023/07/18 14:07:48;;;;;;;2.78;1.00;;;;;;;;;;5093261;27;20043;-76
2023/07/18 14:10:14;;;;;;;3.58;0.90;;;;;;;;;;5111490;27;20461;-75
2023/07/18 14:12:40;;;;;;;3.63;0.90;;;;;;;;;;5077834;27;20039;-76
2023/07/18 14:15:07;;;;;;;1.85;1.00;;;;;;;;;;5092484;27;20084;-75
2023/07/18 14:17:33;;;;;;;2.58;0.88;;;;;;;;;;5087341;28;22078;-75
2023/07/18 14:19:59;;;;;;;2.42;1.40;;;;;;;;;;5086544;27;20424;-75
2023/07/18 14:22:25;;;;;;;3.15;1.45;;;;;;;;;;5107045;27;20111;-76
2023/07/18 14:24:52;;;;;;;2.40;1.08;;;;;;;;;;5087639;28;20168;-76
2023/07/18 14:27:18;;;;;;;4.50;1.38;;;;;;;;;;5105541;27;20039;-75
2023/07/18 14:29:44;;;;;;;1.77;0.93;;;;;;;;;;5079658;28;20078;-74
2023/07/18 14:32:10;;;;;;;1.65;0.93;;;;;;;;;;5079907;28;20047;-74